Fene, Spain
Current Conditions -  °F | °C
As of 6:30 AM on Monday 22 Dec 2014 (Local Time) from LECO Reporting Station
Moderate Fog Moderate Fog  
Wind Chill: 37°   Ceiling: 100
Heat Index: 37°   Visibility: 0.18mi
Dew Point: 37°   Wind: 1mph
Humidity: 100%   Direction: NA
Pressure: 30.42"   Gusts: NA
Location:  43.45°N, 8.15°W
Report Text: LECO 220530Z VRB01KT 0300 R21/0450N R03/0350N FG VV001 03/03 Q1030 NOSIG
Loading
Personal Weather Stations






























Interactive Weather Map New forecast layout! Learn more

10-Day Weather Forecast

Advertisements
Track Severe Weather on mobile